createdAt,value
2018-08-23T00:02:24.252Z,19.90
2018-08-23T00:04:50.199Z,19.80
2018-08-23T00:07:16.198Z,19.70
2018-08-23T00:09:42.208Z,19.60
2018-08-23T00:12:08.213Z,19.50
2018-08-23T00:14:34.902Z,19.30
2018-08-23T00:17:00.915Z,19.30
2018-08-23T00:19:26.866Z,19.30
2018-08-23T00:21:52.846Z,19.40
2018-08-23T00:24:18.799Z,19.40
2018-08-23T00:26:44.753Z,19.40
2018-08-23T00:29:11.474Z,19.50
2018-08-23T00:31:37.420Z,19.40
2018-08-23T00:34:04.143Z,19.50
2018-08-23T00:36:30.099Z,19.50
2018-08-23T00:38:56.085Z,19.50
2018-08-23T00:41:22.049Z,19.50
2018-08-23T00:43:48.043Z,19.50
2018-08-23T00:46:14.006Z,19.50
2018-08-23T00:48:40.006Z,19.50
2018-08-23T00:51:06.703Z,19.60
2018-08-23T00:53:32.693Z,19.60
2018-08-23T00:55:58.656Z,19.70
2018-08-23T00:58:24.650Z,19.60
2018-08-23T01:00:50.644Z,19.60
2018-08-23T01:03:16.644Z,19.60
2018-08-23T01:05:42.592Z,19.70
2018-08-23T01:08:09.284Z,19.70
2018-08-23T01:10:35.273Z,19.60
2018-08-23T01:13:01.236Z,19.70
2018-08-23T01:15:27.205Z,19.70
2018-08-23T01:17:53.161Z,19.80
2018-08-23T01:20:19.156Z,19.70
2018-08-23T01:22:45.111Z,19.70
2018-08-23T01:25:11.092Z,19.70
2018-08-23T01:27:37.061Z,19.70
2018-08-23T01:30:03.024Z,19.70
2018-08-23T01:32:29.732Z,19.70
2018-08-23T01:34:55.720Z,19.70
2018-08-23T01:37:21.693Z,19.70
2018-08-23T01:39:47.671Z,19.70
2018-08-23T01:42:13.621Z,19.60
2018-08-23T01:44:39.598Z,19.60
2018-08-23T01:47:05.577Z,19.60
2018-08-23T01:49:31.566Z,19.50
2018-08-23T01:51:57.585Z,19.50
2018-08-23T01:54:24.009Z,19.50
2018-08-23T01:56:49.956Z,19.50
2018-08-23T01:59:15.914Z,19.50
2018-08-23T02:01:41.881Z,19.40
2018-08-23T02:04:07.835Z,19.40
2018-08-23T02:06:33.802Z,19.40
2018-08-23T02:09:00.507Z,19.30
2018-08-23T02:11:26.478Z,19.30
2018-08-23T02:13:52.438Z,19.30
2018-08-23T02:16:18.426Z,19.20
2018-08-23T02:18:44.422Z,19.20
2018-08-23T02:21:10.381Z,19.20
2018-08-23T02:23:36.374Z,19.20
2018-08-23T02:26:03.067Z,19.20
2018-08-23T02:28:29.120Z,19.20
2018-08-23T02:30:55.129Z,19.10
2018-08-23T02:33:21.125Z,19.00
2018-08-23T02:35:47.078Z,19.00
2018-08-23T02:38:13.118Z,18.90
2018-08-23T02:40:39.046Z,18.90
2018-08-23T02:43:15.180Z,18.80
2018-08-23T02:45:46.896Z,18.80
2018-08-23T02:48:12.851Z,18.80
2018-08-23T02:50:38.816Z,18.90
2018-08-23T02:53:04.770Z,18.90
2018-08-23T02:55:30.751Z,18.90
2018-08-23T02:57:56.707Z,18.80
2018-08-23T03:00:22.703Z,18.80
2018-08-23T03:02:48.644Z,18.80
2018-08-23T03:05:14.627Z,18.70
2018-08-23T03:07:40.568Z,18.60
2018-08-23T03:10:06.537Z,18.60
2018-08-23T03:12:32.504Z,18.50
2018-08-23T03:14:58.490Z,18.40
2018-08-23T03:17:24.449Z,18.30
2018-08-23T03:19:50.432Z,18.30
2018-08-23T03:22:16.376Z,18.20
2018-08-23T03:24:42.328Z,18.20
2018-08-23T03:27:09.044Z,18.00
2018-08-23T03:29:35.010Z,18.00
2018-08-23T03:32:01.765Z,17.90
2018-08-23T03:34:27.741Z,17.90
2018-08-23T03:36:53.740Z,17.90
2018-08-23T03:39:19.691Z,17.90
2018-08-23T03:41:45.664Z,17.90
2018-08-23T03:44:11.603Z,17.90
2018-08-23T03:46:37.599Z,17.90
2018-08-23T03:49:03.571Z,18.00
2018-08-23T03:51:30.332Z,17.80
2018-08-23T03:53:57.043Z,17.70
2018-08-23T03:56:23.046Z,17.70
2018-08-23T03:58:49.022Z,17.70
2018-08-23T04:01:15.744Z,17.50
2018-08-23T04:03:41.756Z,17.50
2018-08-23T04:06:07.719Z,17.40
2018-08-23T04:08:34.461Z,17.30
2018-08-23T04:11:01.159Z,17.20
2018-08-23T04:13:27.156Z,17.20
2018-08-23T04:15:53.106Z,17.20
2018-08-23T04:18:19.086Z,17.10
2018-08-23T04:20:45.038Z,17.10
2018-08-23T04:23:11.013Z,17.00
2018-08-23T04:25:37.713Z,17.10
2018-08-23T04:28:03.664Z,17.00
2018-08-23T04:30:29.630Z,17.10
2018-08-23T04:32:55.585Z,17.10
2018-08-23T04:35:21.557Z,17.00
2018-08-23T04:37:47.506Z,17.00
2018-08-23T04:40:13.501Z,16.90
2018-08-23T04:42:39.464Z,16.90
2018-08-23T04:45:05.492Z,16.90
2018-08-23T04:47:31.495Z,16.90
2018-08-23T04:49:57.476Z,16.90
2018-08-23T04:52:23.438Z,17.00
2018-08-23T04:54:49.380Z,17.00
2018-08-23T04:57:15.371Z,17.10
2018-08-23T04:59:41.324Z,17.10
2018-08-23T05:02:07.318Z,17.10
2018-08-23T05:04:33.286Z,17.20
2018-08-23T05:06:59.278Z,17.20
2018-08-23T05:09:25.263Z,17.30
2018-08-23T05:11:51.966Z,17.40
2018-08-23T05:14:18.779Z,17.40
2018-08-23T05:16:44.788Z,17.40
2018-08-23T05:19:10.764Z,17.40
2018-08-23T05:21:37.509Z,17.60
2018-08-23T05:24:03.490Z,17.60
2018-08-23T05:26:29.456Z,17.60
2018-08-23T05:28:55.443Z,17.70
2018-08-23T05:31:21.390Z,17.80
2018-08-23T05:33:47.369Z,17.80
2018-08-23T05:36:14.071Z,18.10
2018-08-23T05:38:40.067Z,18.10
2018-08-23T05:41:06.045Z,18.20
2018-08-23T05:43:32.089Z,18.30
2018-08-23T05:45:58.059Z,18.40
2018-08-23T05:48:24.112Z,18.50
2018-08-23T05:50:50.113Z,18.60
2018-08-23T05:53:16.061Z,18.60
2018-08-23T05:55:42.049Z,18.50
2018-08-23T05:58:08.010Z,18.60
2018-08-23T06:00:34.012Z,18.70
2018-08-23T06:03:00.721Z,18.80
2018-08-23T06:05:26.730Z,18.80
2018-08-23T06:07:52.736Z,18.70
2018-08-23T06:10:18.719Z,18.80
2018-08-23T06:12:45.405Z,18.90
2018-08-23T06:15:11.395Z,18.90
2018-08-23T06:17:37.378Z,19.10
2018-08-23T06:20:03.422Z,19.20
2018-08-23T06:22:29.363Z,19.30
2018-08-23T06:24:55.616Z,19.50
2018-08-23T06:27:21.621Z,19.70
2018-08-23T06:29:47.550Z,19.90
2018-08-23T06:32:13.556Z,20.10
2018-08-23T06:34:39.547Z,20.20
2018-08-23T06:37:05.568Z,20.30
2018-08-23T06:39:31.535Z,20.60
2018-08-23T06:41:57.532Z,20.70
2018-08-23T06:44:23.503Z,20.60
2018-08-23T06:46:50.238Z,20.70
2018-08-23T06:49:16.278Z,20.70
2018-08-23T06:51:42.268Z,20.80
2018-08-23T06:54:08.966Z,21.50
2018-08-23T06:56:34.955Z,21.50
2018-08-23T06:59:01.094Z,21.90
2018-08-23T07:01:26.945Z,22.40
2018-08-23T07:03:52.934Z,22.80
2018-08-23T07:06:18.912Z,23.00
2018-08-23T07:08:45.650Z,23.60
2018-08-23T07:11:11.587Z,23.60
2018-08-23T07:13:38.283Z,24.90
2018-08-23T07:16:04.279Z,24.90
2018-08-23T07:18:30.226Z,24.80
2018-08-23T07:20:56.191Z,24.60
2018-08-23T07:23:22.897Z,24.80
2018-08-23T07:25:48.877Z,24.70
2018-08-23T07:28:14.839Z,25.10
2018-08-23T07:30:40.858Z,25.00
2018-08-23T07:33:06.891Z,24.80
2018-08-23T07:35:32.835Z,24.70
2018-08-23T07:37:58.780Z,24.40
2018-08-23T07:40:25.484Z,23.70
2018-08-23T07:42:51.441Z,23.60
2018-08-23T07:45:17.463Z,23.40
2018-08-23T07:47:43.460Z,23.30
2018-08-23T07:50:09.426Z,22.90
2018-08-23T07:52:35.461Z,22.60
2018-08-23T07:55:02.135Z,22.20
2018-08-23T07:57:30.324Z,22.20
2018-08-23T07:59:56.261Z,22.10
2018-08-23T08:02:22.968Z,21.70
2018-08-23T08:04:48.933Z,21.70
2018-08-23T08:07:15.657Z,21.60
2018-08-23T08:09:42.361Z,21.70
2018-08-23T08:12:08.342Z,21.70
2018-08-23T08:14:34.361Z,21.90
2018-08-23T08:17:00.347Z,22.10
2018-08-23T08:19:26.338Z,22.40
2018-08-23T08:21:52.304Z,22.60
2018-08-23T08:24:18.314Z,23.40
2018-08-23T08:26:44.247Z,23.80
2018-08-23T08:29:10.218Z,24.10
2018-08-23T08:31:36.196Z,24.50
2018-08-23T08:34:02.197Z,24.70
2018-08-23T08:36:28.185Z,24.70
2018-08-23T08:38:54.159Z,24.20
2018-08-23T08:41:20.104Z,23.70
2018-08-23T08:43:46.087Z,23.30
2018-08-23T08:46:12.051Z,23.00
2018-08-23T08:48:38.768Z,22.90
2018-08-23T08:51:04.722Z,22.80
2018-08-23T08:53:30.727Z,22.70
2018-08-23T08:56:03.612Z,22.50
2018-08-23T08:58:29.553Z,22.60
2018-08-23T09:00:56.261Z,23.00
2018-08-23T09:03:22.225Z,23.00
2018-08-23T09:05:48.208Z,23.30
2018-08-23T09:08:14.161Z,23.40
2018-08-23T09:10:40.152Z,24.00
2018-08-23T09:13:06.152Z,24.60
2018-08-23T09:15:32.077Z,24.70
2018-08-23T09:17:58.042Z,24.20
2018-08-23T09:20:24.757Z,24.10
2018-08-23T09:22:50.749Z,24.10
2018-08-23T09:25:16.729Z,23.90
2018-08-23T09:27:43.472Z,24.00
2018-08-23T09:30:10.173Z,25.00
2018-08-23T09:32:36.138Z,25.00
2018-08-23T09:35:02.878Z,26.80
2018-08-23T09:37:28.801Z,26.70
2018-08-23T09:39:54.807Z,26.70
2018-08-23T09:42:21.538Z,27.70
2018-08-23T09:44:47.519Z,27.70
2018-08-23T09:47:13.466Z,27.70
2018-08-23T09:49:39.443Z,27.60
2018-08-23T09:52:05.402Z,27.20
2018-08-23T09:54:31.376Z,26.90
2018-08-23T09:56:58.075Z,26.40
2018-08-23T09:59:24.057Z,26.40
2018-08-23T10:01:50.016Z,26.30
2018-08-23T10:04:16.038Z,26.00
2018-08-23T10:06:42.020Z,25.80
2018-08-23T10:09:08.017Z,25.50
2018-08-23T10:11:34.024Z,25.20
2018-08-23T10:13:59.953Z,24.90
2018-08-23T10:16:25.933Z,24.70
2018-08-23T10:18:51.894Z,24.50
2018-08-23T10:21:17.865Z,24.30
2018-08-23T10:23:43.825Z,24.40
2018-08-23T10:26:09.798Z,24.40
2018-08-23T10:28:35.755Z,24.40
2018-08-23T10:31:01.729Z,24.50
2018-08-23T10:33:28.425Z,24.60
2018-08-23T10:35:54.388Z,24.60
2018-08-23T10:38:21.158Z,24.20
2018-08-23T10:40:47.842Z,24.10
2018-08-23T10:43:13.808Z,24.10
2018-08-23T10:45:39.782Z,24.10
2018-08-23T10:48:05.756Z,24.10
2018-08-23T10:50:31.785Z,24.20
2018-08-23T10:52:57.789Z,24.20
2018-08-23T10:55:24.478Z,24.30
2018-08-23T10:57:50.459Z,24.20
2018-08-23T11:00:16.421Z,24.30
2018-08-23T11:02:42.412Z,24.30
2018-08-23T11:05:08.387Z,24.40
2018-08-23T11:07:34.339Z,24.50
2018-08-23T11:10:01.074Z,24.90
2018-08-23T11:12:27.020Z,24.90
2018-08-23T11:14:53.730Z,25.30
2018-08-23T11:17:19.694Z,25.30
2018-08-23T11:19:45.690Z,25.60
2018-08-23T11:22:12.382Z,25.90
2018-08-23T11:24:38.366Z,25.90
2018-08-23T11:27:04.339Z,25.70
2018-08-23T11:29:30.400Z,25.40
2018-08-23T11:31:56.348Z,25.70
2018-08-23T11:34:22.334Z,25.50
2018-08-23T11:36:48.308Z,25.40
2018-08-23T11:39:14.294Z,25.30
2018-08-23T11:41:41.026Z,25.30
2018-08-23T11:44:07.741Z,25.40
2018-08-23T11:46:33.724Z,25.40
2018-08-23T11:48:59.726Z,25.40
2018-08-23T11:51:25.706Z,25.30
2018-08-23T11:53:51.707Z,25.40
2018-08-23T11:56:17.672Z,25.40
2018-08-23T11:58:43.659Z,25.40
2018-08-23T12:01:09.661Z,25.10
2018-08-23T12:03:35.661Z,25.10
2018-08-23T12:06:02.360Z,24.90
2018-08-23T12:08:28.347Z,24.90
2018-08-23T12:10:54.332Z,24.80
2018-08-23T12:13:20.320Z,24.50
2018-08-23T12:15:46.262Z,24.30
2018-08-23T12:18:12.222Z,24.30
2018-08-23T12:20:38.946Z,24.40
2018-08-23T12:23:04.960Z,24.40
2018-08-23T12:25:30.983Z,24.40
2018-08-23T12:27:56.924Z,24.40
2018-08-23T12:30:23.652Z,24.10
2018-08-23T12:32:50.378Z,24.30
2018-08-23T12:35:17.137Z,24.40
2018-08-23T12:37:43.904Z,24.80
2018-08-23T12:40:10.608Z,25.10
2018-08-23T12:42:36.569Z,25.10
2018-08-23T12:45:02.567Z,25.30
2018-08-23T12:47:29.292Z,25.60
2018-08-23T12:49:55.277Z,25.60
2018-08-23T12:52:21.363Z,25.70
2018-08-23T12:54:48.095Z,25.60
2018-08-23T12:57:14.070Z,25.60
2018-08-23T12:59:40.044Z,25.70
2018-08-23T13:02:06.868Z,25.70
2018-08-23T13:04:32.815Z,25.70
2018-08-23T13:06:59.573Z,25.60
2018-08-23T13:09:25.570Z,25.60
2018-08-23T13:11:51.570Z,25.60
2018-08-23T13:14:17.557Z,25.60
2018-08-23T13:16:43.560Z,25.40
2018-08-23T13:19:10.279Z,25.20
2018-08-23T13:21:36.276Z,25.20
2018-08-23T13:24:02.272Z,25.20
2018-08-23T13:26:29.046Z,25.20
2018-08-23T13:28:55.079Z,25.20
2018-08-23T13:31:21.074Z,25.30
2018-08-23T13:33:47.051Z,25.20
2018-08-23T13:36:13.867Z,25.00
2018-08-23T13:38:40.526Z,25.20
2018-08-23T13:41:06.523Z,25.20
2018-08-23T13:43:32.574Z,25.00
2018-08-23T13:45:58.536Z,25.00
2018-08-23T13:48:24.597Z,25.00
2018-08-23T13:50:50.548Z,24.90
2018-08-23T13:53:17.240Z,24.80
2018-08-23T13:55:43.197Z,24.80
2018-08-23T13:58:09.945Z,24.80
2018-08-23T14:00:35.907Z,24.80
2018-08-23T14:03:01.904Z,24.70
2018-08-23T14:05:28.598Z,24.80
2018-08-23T14:07:54.577Z,24.80
2018-08-23T14:10:20.555Z,24.60
2018-08-23T14:12:46.547Z,24.40
2018-08-23T14:15:12.526Z,24.30
2018-08-23T14:17:39.234Z,24.50
2018-08-23T14:20:05.234Z,24.40
2018-08-23T14:22:31.229Z,24.40
2018-08-23T14:24:57.232Z,24.40
2018-08-23T14:27:23.174Z,24.30
2018-08-23T14:29:49.175Z,24.40
2018-08-23T14:32:15.918Z,24.30
2018-08-23T14:34:41.890Z,24.30
2018-08-23T14:37:07.851Z,24.30
2018-08-23T14:39:33.827Z,24.20
2018-08-23T14:41:59.814Z,24.30
2018-08-23T14:44:26.595Z,24.40
2018-08-23T14:46:52.486Z,24.40
2018-08-23T14:49:19.213Z,24.60
2018-08-23T14:51:45.945Z,24.60
2018-08-23T14:54:11.927Z,24.60
2018-08-23T14:56:37.927Z,24.80
2018-08-23T14:59:03.941Z,25.10
2018-08-23T15:01:30.652Z,25.60
2018-08-23T15:03:57.377Z,25.60
2018-08-23T15:06:23.371Z,25.60
2018-08-23T15:08:49.335Z,25.50
2018-08-23T15:11:15.334Z,25.60
2018-08-23T15:13:41.289Z,25.50
2018-08-23T15:16:08.030Z,25.20
2018-08-23T15:18:34.734Z,25.10
2018-08-23T15:21:00.729Z,25.10
2018-08-23T15:23:26.696Z,25.10
2018-08-23T15:25:52.664Z,25.00
2018-08-23T15:28:18.648Z,24.90
2018-08-23T15:30:44.667Z,24.80
2018-08-23T15:33:10.707Z,24.80
2018-08-23T15:35:36.617Z,24.80
2018-08-23T15:38:02.633Z,24.90
2018-08-23T15:40:28.607Z,25.00
2018-08-23T15:42:55.317Z,24.80
2018-08-23T15:45:22.063Z,24.70
2018-08-23T15:47:48.117Z,24.70
2018-08-23T15:50:14.061Z,24.60
2018-08-23T15:52:40.037Z,24.60
2018-08-23T15:55:06.889Z,24.50
2018-08-23T15:57:32.766Z,24.50
2018-08-23T15:59:58.752Z,24.50
2018-08-23T16:02:24.715Z,24.60
2018-08-23T16:04:50.691Z,24.70
2018-08-23T16:07:17.373Z,24.60
2018-08-23T16:09:43.360Z,24.60
2018-08-23T16:12:09.316Z,24.60
2018-08-23T16:14:35.271Z,24.60
2018-08-23T16:17:01.268Z,24.60
2018-08-23T16:19:27.224Z,24.60
2018-08-23T16:21:53.977Z,24.40
2018-08-23T16:24:19.935Z,24.40
2018-08-23T16:26:45.900Z,24.20
2018-08-23T16:29:11.886Z,24.10
2018-08-23T16:31:37.868Z,24.10
2018-08-23T16:34:04.566Z,23.90
2018-08-23T16:36:30.564Z,23.90
2018-08-23T16:38:56.520Z,23.90
2018-08-23T16:41:22.521Z,24.00
2018-08-23T16:43:48.508Z,24.00
2018-08-23T16:46:15.196Z,24.00
2018-08-23T16:48:41.179Z,24.00
2018-08-23T16:51:07.135Z,23.90
2018-08-23T16:53:33.122Z,23.90
2018-08-23T16:55:59.087Z,23.80
2018-08-23T16:58:25.115Z,23.80
2018-08-23T17:00:51.098Z,23.70
2018-08-23T17:03:17.086Z,23.70
2018-08-23T17:05:43.101Z,23.60
2018-08-23T17:08:09.118Z,23.50
2018-08-23T17:10:35.085Z,23.40
2018-08-23T17:13:01.078Z,23.30
2018-08-23T17:15:27.027Z,23.20
2018-08-23T17:17:53.756Z,23.20
2018-08-23T17:20:19.776Z,22.20
2018-08-23T17:22:46.457Z,23.10
2018-08-23T17:25:12.516Z,23.10
2018-08-23T17:27:38.454Z,23.10
2018-08-23T17:30:05.191Z,23.00
2018-08-23T17:32:31.202Z,23.00
2018-08-23T17:34:57.246Z,23.00
2018-08-23T17:37:23.210Z,22.90
2018-08-23T17:39:49.185Z,22.90
2018-08-23T17:42:15.182Z,22.80
2018-08-23T17:44:41.116Z,22.80
2018-08-23T17:47:07.114Z,22.80
2018-08-23T17:49:33.103Z,22.70
2018-08-23T17:51:59.819Z,22.60
2018-08-23T17:54:25.826Z,22.60
2018-08-23T17:56:51.827Z,22.60
2018-08-23T17:59:17.828Z,22.60
2018-08-23T18:01:43.820Z,22.50
2018-08-23T18:04:10.510Z,22.50
2018-08-23T18:06:36.577Z,22.50
2018-08-23T18:09:02.503Z,22.40
2018-08-23T18:11:29.237Z,22.40
2018-08-23T18:13:55.231Z,22.40
2018-08-23T18:16:21.186Z,22.30
2018-08-23T18:18:47.158Z,22.30
2018-08-23T18:21:13.117Z,22.30
2018-08-23T18:23:39.200Z,22.20
2018-08-23T18:26:05.178Z,22.20
2018-08-23T18:28:31.162Z,22.20
2018-08-23T18:30:57.137Z,22.10
2018-08-23T18:33:23.910Z,22.10
2018-08-23T18:35:50.066Z,22.10
2018-08-23T18:38:16.060Z,22.10
2018-08-23T18:40:42.067Z,22.10
2018-08-23T18:48:22.740Z,22.00
2018-08-23T18:50:49.488Z,21.90
2018-08-23T18:53:15.504Z,21.90
2018-08-23T18:55:41.516Z,21.90
2018-08-23T18:58:07.491Z,21.90
2018-08-23T19:00:33.453Z,21.90
2018-08-23T19:02:59.465Z,21.80
2018-08-23T19:05:25.428Z,21.70
2018-08-23T19:07:52.189Z,21.60
2018-08-23T19:10:18.194Z,21.60
2018-08-23T19:12:44.962Z,21.50
2018-08-23T19:15:10.946Z,21.50
2018-08-23T19:17:37.693Z,21.50
2018-08-23T19:20:03.654Z,21.50
2018-08-23T19:22:29.624Z,21.50
2018-08-23T19:24:55.568Z,21.40
2018-08-23T19:27:21.524Z,21.30
2018-08-23T19:29:47.511Z,21.20
2018-08-23T19:32:14.221Z,21.20
2018-08-23T19:34:40.228Z,21.20
2018-08-23T19:37:06.193Z,21.20
2018-08-23T19:39:32.965Z,21.20
2018-08-23T19:41:58.904Z,21.20
2018-08-23T19:44:24.897Z,21.20
2018-08-23T19:46:50.862Z,21.30
2018-08-23T19:49:16.808Z,21.20
2018-08-23T19:51:42.794Z,21.20
2018-08-23T19:54:08.748Z,21.20
2018-08-23T19:56:34.753Z,21.20
2018-08-23T19:59:00.718Z,21.20
2018-08-23T20:01:26.696Z,21.20
2018-08-23T20:03:52.659Z,21.20
2018-08-23T20:06:18.695Z,21.20
2018-08-23T20:08:44.666Z,21.20
2018-08-23T20:11:10.657Z,21.20
2018-08-23T20:13:36.640Z,21.20
2018-08-23T20:16:02.596Z,21.20
2018-08-23T20:18:29.348Z,21.20
2018-08-23T20:20:55.309Z,21.20
2018-08-23T20:23:21.351Z,21.20
2018-08-23T20:25:47.331Z,21.10
2018-08-23T20:28:13.310Z,21.10
2018-08-23T20:30:40.031Z,21.00
2018-08-23T20:33:06.029Z,21.00
2018-08-23T20:35:31.997Z,21.00
2018-08-23T20:37:58.013Z,21.00
2018-08-23T20:40:24.082Z,20.90
2018-08-23T20:42:50.046Z,20.90
2018-08-23T20:45:16.039Z,20.80
2018-08-23T20:47:42.011Z,20.70
2018-08-23T20:50:08.786Z,20.60
2018-08-23T20:52:34.932Z,20.60
2018-08-23T20:55:00.995Z,20.50
2018-08-23T20:57:26.988Z,20.50
2018-08-23T20:59:53.158Z,20.40
2018-08-23T21:02:19.209Z,20.40
2018-08-23T21:04:45.183Z,20.40
2018-08-23T21:07:11.209Z,20.30
2018-08-23T21:09:37.194Z,20.30
2018-08-23T21:12:03.154Z,20.30
2018-08-23T21:14:30.722Z,20.10
2018-08-23T21:16:56.746Z,20.10
2018-08-23T21:19:22.870Z,20.00
2018-08-23T21:21:50.349Z,20.00
2018-08-23T21:24:18.301Z,19.90
2018-08-23T21:26:44.265Z,19.90
2018-08-23T21:29:10.994Z,19.80
2018-08-23T21:31:37.733Z,19.80
2018-08-23T21:34:03.724Z,19.80
2018-08-23T21:36:29.704Z,19.80
2018-08-23T21:49:57.228Z,19.60
2018-08-23T21:52:26.992Z,19.50
2018-08-23T21:54:56.919Z,19.50
2018-08-23T21:57:23.664Z,19.10
2018-08-23T21:59:50.501Z,19.10
2018-08-23T22:02:17.219Z,18.50
2018-08-23T22:04:43.215Z,18.50
2018-08-23T22:07:09.178Z,18.40
2018-08-23T22:09:35.189Z,18.20
2018-08-23T22:12:01.214Z,18.20
2018-08-23T22:14:27.181Z,18.00
2018-08-23T22:16:53.939Z,17.90
2018-08-23T22:19:19.991Z,17.90
2018-08-23T22:21:46.584Z,17.80
2018-08-23T22:24:12.589Z,17.70
2018-08-23T22:26:38.679Z,17.80
2018-08-23T22:29:05.360Z,17.60
2018-08-23T22:31:31.368Z,17.50
2018-08-23T22:33:57.544Z,17.60
2018-08-23T22:36:23.898Z,17.50
2018-08-23T22:38:49.950Z,17.50
2018-08-23T22:41:15.921Z,17.50
2018-08-23T22:43:41.954Z,17.50
2018-08-23T22:46:07.897Z,17.50
2018-08-23T22:48:33.886Z,17.50
2018-08-23T22:50:59.854Z,17.50
2018-08-23T22:53:25.833Z,17.50
2018-08-23T22:55:51.844Z,17.60
2018-08-23T22:58:18.572Z,17.70
2018-08-23T23:00:44.528Z,17.70
2018-08-23T23:03:10.484Z,17.70
2018-08-23T23:05:36.476Z,17.70
2018-08-23T23:08:02.446Z,17.70
2018-08-23T23:10:28.410Z,17.70
2018-08-23T23:12:54.366Z,17.60
2018-08-23T23:15:20.386Z,17.70
2018-08-23T23:17:46.366Z,17.60
2018-08-23T23:20:13.081Z,17.60
2018-08-23T23:22:39.046Z,17.60
2018-08-23T23:25:05.052Z,17.50
2018-08-23T23:27:31.144Z,17.50
2018-08-23T23:29:57.166Z,17.50
2018-08-23T23:32:23.193Z,17.50
2018-08-23T23:34:49.236Z,17.30
2018-08-23T23:37:16.078Z,17.30
2018-08-23T23:39:42.946Z,17.20
2018-08-23T23:42:09.001Z,17.20
2018-08-23T23:44:35.017Z,17.20
2018-08-23T23:47:01.107Z,17.20
2018-08-23T23:49:27.885Z,17.20
2018-08-23T23:51:54.679Z,17.20
2018-08-23T23:54:20.710Z,17.10
2018-08-23T23:56:46.967Z,17.10
2018-08-23T23:59:12.924Z,17.10
